首页
METAR-TAF:

METAR-TAF

机场 :

博兹曼机场

博兹曼, 蒙大拿州, 美国

纬度: 45-47-17N, 经度: 111-09-39W, 海拔: 1364米

当前天气观测

该预报发布于34分钟前的04:56 UTC
风速8节,风向南转西南
温度 3°C
湿度 75%
气压 1018 hPa
能見度: 16.1公里
阴天层高于6000英尺

METAR: KBZN 270456Z 21008KT 10SM OVC060 03/M01 A3006 RMK AO2 SNE0357 SLP203 P0000 T00281011

时间: 22:30 (05:30 UTC)

预报

该预报发布于2小时和27分钟前的03:03 UTC
预报有效从27日的 03点(UTC)到 28日的 06点(UTC)
风速6节,风向多变
能見度: 10公里
阴天层高于3500英尺
从 27日的 0800点(UTC)
风速6节,风向多变
能見度: 9.7公里
阴天层高于2500英尺
小雪
从 27日的 1400点(UTC)
风速11节,风向西南
能見度: 3.2公里
阴天层高于2000英尺
小雪
从 28日的 0300点(UTC)
风速9节,风向北转西北
能見度: 9.7公里
阴天层高于1000英尺
小雪

TAF: KBZN 270303Z 2703/2806 VRB06KT P6SM OVC035 FM270800 VRB06KT 6SM -SN OVC025 FM271400 23011KT 2SM -SN OVC020 FM280300 33009KT 6SM -SN OVC010

超过4000个机场的气象观测和天气预报(METAR&TAF报告)。

可查询的气象台以黄色和红色小点在地图上表示。

将鼠标移到小点上方,可查看气象台名称。

然后点击查看天气观测和预报。

如需切换地图:点击带黑十字的绿色按钮放大地图;点击带横线的绿色按钮缩小地图;或者点击绿色箭头查看邻近地区的地图。


METAR-TAF: